• Join FlightAware (Why Join?)
  • Login
  • US Flag 
12:38AM EDT


 

Airport Tracker/Info


-or-


 

Live Flight TrackerFlight Track Log ✈ EMD24 ✈ 18-Jun-2013 ✈ KAPA - KGLD

Flight Track Log - Related Links

Times and Time Zones

All times are in EDT time to prevent confusion due to time zone crossing. See the EMD24 flight status page for this flight to view local times or setup timezone preferences in your user account.

Time Position Orientation Groundspeed Altitude Reporting Facility
EDT Latitude Longitude Course Direction KTS MPH feet Rate Location/Type
12:43AM 39.5500 -104.8167 67° East 146 168 7,100  Level Denver TRACON
12:44AM 39.5667 -104.7667 67° East 165 190 8,300 1,080 Climbing Denver TRACON
12:45AM 39.5667 -104.7000 90° East 168 193 9,300 1,020 Climbing Denver TRACON
12:46AM 39.5667 -104.6333 90° East 179 206 10,500 900 Climbing Denver TRACON
12:47AM 39.5667 -104.5667 90° East 190 219 11,300 660 Climbing Denver TRACON
12:48AM 39.5500 -104.5000 108° East 201 231 11,900 240 Climbing Denver TRACON
12:49AM 39.5333 -104.4167 105° East 227 261 11,800  Descending Denver TRACON
12:51AM 39.5131 -104.3061 103° East 226 260 12,000  Climbing Denver Center
12:52AM 39.4697 -104.2464 133° Southeast 226 260 11,900 -60 Descending Denver Center
12:53AM 39.4200 -104.1986 143° Southeast 223 257 11,900  Level Denver Center
12:54AM 39.3950 -104.1283 115° Southeast 232 267 11,900  Level Denver Center
12:55AM 39.3944 -104.0417 90° East 227 261 11,900  Level Denver Center
12:56AM 39.3939 -103.9592 90° East 231 266 11,900 600 Level Denver Center
12:57AM 39.3917 -103.8844 92° East 211 243 13,200 1,080 Climbing Denver Center
12:58AM 39.3908 -103.8186 91° East 188 216 14,100 780 Climbing Denver Center
12:59AM 39.3917 -103.7483 89° East 190 219 14,900 420 Climbing Denver Center
01:00AM 39.3908 -103.6739 91° East 200 230 15,000  Climbing Denver Center
01:01AM 39.3878 -103.5903 93° East 227 261 15,000  Level Denver Center
01:02AM 39.3881 -103.5050 90° East 235 270 15,000 -60 Level Denver Center
01:03AM 39.3864 -103.4219 91° East 234 269 14,900  Descending Denver Center
01:04AM 39.3867 -103.3375 90° East 234 269 15,000  Climbing Denver Center
01:05AM 39.3864 -103.2547 90° East 232 267 14,900  Descending Denver Center
01:06AM 39.3850 -103.1569 91° East 228 262 15,000  Climbing Denver Center
01:07AM 39.3839 -103.0756 91° East 227 261 15,000 -60 Level Denver Center
01:08AM 39.3825 -102.9969 91° East 219 252 14,900 -60 Descending Denver Center
01:09AM 39.3783 -102.9183 94° East 219 252 14,900  Level Denver Center
01:10AM 39.3767 -102.8372 91° East 224 258 14,900  Level Denver Center
01:11AM 39.3750 -102.7558 91° East 227 261 14,900  Level Denver Center
01:12AM 39.3747 -102.6731 90° East 230 265 14,900 -360 Level Denver Center
01:13AM 39.3739 -102.5861 91° East 242 278 14,200 -780 Descending Denver Center
01:14AM 39.3736 -102.4975 90° East 248 285 13,400 -840 Descending Denver Center
01:15AM 39.3725 -102.4083 91° East 249 287 12,600 -900 Descending Denver Center
01:16AM 39.3750 -102.3147 88° East 246 283 11,700 -900 Descending Denver Center
01:17AM 39.3744 -102.2325 90° East 241 277 10,800 -960 Descending Denver Center
01:18AM 39.3747 -102.1367 90° East 240 276 9,800 -960 Descending Denver Center
01:19AM 39.3742 -102.0594 91° East 233 268 8,900 -720 Descending Denver Center
01:20AM 39.3719 -101.9831 92° East 228 262 8,400 -720 Descending Denver Center
01:21AM 39.3686 -101.9117 93° East 221 254 7,500 -900 Descending Denver Center
01:23AM 39.3669 -101.7951 91° East  Level FlightAware Approximate
01:30AM 39.3706 -101.6990 90° East  Level Estimated
01:31AM 39.3706 -101.6990 90° East  Level Estimated